Aeroporto :
LOGIN :

Iscrizione | Disclaimer

   EN    FR    IT 

 










Sommario :    VFR   VFR Marginale   IFR   IFR Intensivo   IFR Molto Intensivo
Visibilità : 
Base nubi : 
>= 8 km
>= 3000ft
5 / 8 km
1000 / 3000 ft
1500m / 5 km
500 / 1000 ft
800 / 1500m
200 / 500 ft
< 800m
< 200 ft
Simboli :   Temporali  Nebbia  Neve Forte  Precipitazioni Forti  Vento > 20 kt
SIGMETs :   Varie  Temporali  Ghiacco  Turbolenza  Onda orograficha  Ceneri Vulcaniche






- Altitudine del aeroporto : 0 ft


ETEB - Ansbach Army Heliport

ULTIMO METAR :
  • 291556Z AUTO 08010KT 9999 SCT085 18/04 A3024 RMK AO2 SLP252 T01750037 $

METARs OBSOLETI :
  • 291456Z AUTO 07008KT 9999 SCT090 SCT190 17/04 A3025 RMK AO2 SLP258 T01740037 57013 $
  • 291439Z AUTO 09010KT 9999 SCT085 SCT200 18/04 A3025 RMK AO2 WSHFT 36 SLP258 $
  • 291356Z AUTO 08012KT 9999 SCT075 BKN200 17/03 A3026 RMK AO2 SLP261 T01730025 $

TAF TAF ETEB
Valido dal 29 a 09 ore il 30 a 15 ore UTC


290900Z 2909/3015 05009KT 9999 SCT050 QNH3024INS
BECMG 2911/2912 04012G18KT 9999 BKN065 QNH3018INS TX17/2913Z TN07/3002Z LAST NO AMDS AFT 2916 NEXT 0209



MetMap, La meteo Aeronautica in un colpo d'occhio ! - Copyright ORBIFLY Dicembre 2007 - Disclaimer

ORBIFLY MET'MAP TEAM :

Programmazione e sviluppo : Alexandra Zaïnal
Concezione : Baudouin d'Aumeries
Aiuto per la programmazione : Marc-Olivier Méhu
Supporto tecnico e logistico : Manuel Goepfert
Aiuto per la traduzione : Arnaldo La Scala

Contatto : metmap@orbifly.com




FONTI E CREDITI :

   NOAA